createdAt,value
2018-01-08T00:01:44.730Z,82.70
2018-01-08T00:04:12.226Z,82.70
2018-01-08T00:06:39.774Z,82.70
2018-01-08T00:09:07.925Z,82.80
2018-01-08T00:11:35.459Z,82.60
2018-01-08T00:14:02.979Z,82.70
2018-01-08T00:16:31.262Z,82.70
2018-01-08T00:18:59.561Z,82.60
2018-01-08T00:21:27.061Z,82.50
2018-01-08T00:23:54.583Z,82.70
2018-01-08T00:26:22.107Z,82.80
2018-01-08T00:28:50.386Z,82.90
2018-01-08T00:31:18.672Z,83.00
2018-01-08T00:33:46.186Z,83.00
2018-01-08T00:36:13.680Z,83.00
2018-01-08T00:38:41.966Z,83.00
2018-01-08T00:41:09.462Z,82.90
2018-01-08T00:43:36.984Z,83.00
2018-01-08T00:46:04.479Z,83.10
2018-01-08T00:48:32.008Z,83.30
2018-01-08T00:50:59.511Z,83.40
2018-01-08T00:53:27.017Z,83.40
2018-01-08T00:55:54.584Z,83.30
2018-01-08T00:58:22.085Z,83.40
2018-01-08T01:00:49.599Z,83.50
2018-01-08T01:03:17.126Z,83.60
2018-01-08T01:05:45.645Z,83.50
2018-01-08T01:08:13.167Z,83.50
2018-01-08T01:10:41.427Z,83.50
2018-01-08T01:13:09.718Z,83.10
2018-01-08T01:15:37.987Z,83.10
2018-01-08T01:18:06.261Z,83.30
2018-01-08T01:20:34.551Z,83.30
2018-01-08T01:23:02.048Z,83.20
2018-01-08T01:25:29.563Z,83.20
2018-01-08T01:27:57.065Z,83.00
2018-01-08T01:30:24.609Z,83.10
2018-01-08T01:32:52.119Z,82.80
2018-01-08T01:35:19.656Z,82.80
2018-01-08T01:37:47.190Z,82.80
2018-01-08T01:40:14.697Z,82.50
2018-01-08T01:42:42.991Z,82.30
2018-01-08T01:45:10.492Z,82.20
2018-01-08T01:47:38.015Z,82.20
2018-01-08T01:50:05.577Z,82.30
2018-01-08T01:52:33.081Z,82.20
2018-01-08T01:55:00.610Z,82.30
2018-01-08T01:57:28.112Z,82.20
2018-01-08T01:59:56.414Z,82.40
2018-01-08T02:02:23.911Z,82.40
2018-01-08T02:04:51.428Z,82.40
2018-01-08T02:07:18.959Z,82.40
2018-01-08T02:09:46.460Z,82.40
2018-01-08T02:12:13.984Z,81.80
2018-01-08T02:14:42.252Z,82.60
2018-01-08T02:17:10.530Z,82.50
2018-01-08T02:19:38.816Z,82.30
2018-01-08T02:22:07.090Z,82.40
2018-01-08T02:24:35.384Z,82.30
2018-01-08T02:27:02.892Z,82.30
2018-01-08T02:29:30.408Z,82.20
2018-01-08T02:31:57.933Z,82.40
2018-01-08T02:34:26.195Z,82.50
2018-01-08T02:36:53.726Z,82.50
2018-01-08T02:39:21.221Z,82.80
2018-01-08T02:41:49.489Z,82.40
2018-01-08T02:44:17.785Z,82.50
2018-01-08T02:46:45.298Z,82.40
2018-01-08T02:49:12.820Z,82.40
2018-01-08T02:51:40.317Z,82.20
2018-01-08T02:54:07.901Z,82.30
2018-01-08T02:56:36.160Z,82.00
2018-01-08T02:59:03.688Z,82.00
2018-01-08T03:01:31.194Z,82.10
2018-01-08T03:03:59.483Z,82.20
2018-01-08T03:06:27.022Z,82.10
2018-01-08T03:08:55.277Z,82.30
2018-01-08T03:11:22.844Z,82.20
2018-01-08T03:13:50.341Z,82.30
2018-01-08T03:16:17.868Z,82.40
2018-01-08T03:18:46.131Z,82.40
2018-01-08T03:21:13.636Z,82.40
2018-01-08T03:23:41.186Z,82.00
2018-01-08T03:26:08.748Z,81.90
2018-01-08T03:28:36.251Z,82.00
2018-01-08T03:31:03.776Z,82.00
2018-01-08T03:33:31.264Z,81.90
2018-01-08T03:35:58.787Z,81.80
2018-01-08T03:38:26.288Z,81.80
2018-01-08T03:40:53.788Z,81.80
2018-01-08T03:43:21.305Z,82.00
2018-01-08T03:45:48.804Z,81.70
2018-01-08T03:48:16.322Z,81.70
2018-01-08T03:50:44.532Z,81.70
2018-01-08T03:53:12.066Z,81.00
2018-01-08T03:55:40.360Z,82.30
2018-01-08T03:58:08.625Z,81.70
2018-01-08T04:00:36.903Z,81.70
2018-01-08T04:03:05.164Z,81.70
2018-01-08T04:05:32.702Z,81.70
2018-01-08T04:08:00.204Z,81.60
2018-01-08T04:10:27.700Z,81.60
2018-01-08T04:12:55.220Z,81.60
2018-01-08T04:15:22.737Z,81.30
2018-01-08T04:17:51.019Z,81.30
2018-01-08T04:20:18.515Z,81.40
2018-01-08T04:22:46.020Z,81.00
2018-01-08T04:25:13.568Z,80.80
2018-01-08T04:27:41.059Z,80.70
2018-01-08T04:30:09.331Z,81.00
2018-01-08T04:32:37.606Z,81.00
2018-01-08T04:35:05.920Z,81.30
2018-01-08T04:37:33.440Z,81.30
2018-01-08T04:40:00.941Z,81.20
2018-01-08T04:42:28.468Z,81.50
2018-01-08T04:44:56.726Z,81.60
2018-01-08T04:47:24.255Z,81.50
2018-01-08T04:49:51.754Z,81.90
2018-01-08T04:52:20.032Z,81.00
2018-01-08T04:54:48.331Z,80.90
2018-01-08T04:57:15.863Z,80.90
2018-01-08T04:59:44.168Z,80.40
2018-01-08T05:02:11.668Z,80.40
2018-01-08T05:04:39.163Z,80.50
2018-01-08T05:07:07.441Z,80.60
2018-01-08T05:09:34.940Z,80.60
2018-01-08T05:12:02.460Z,80.80
2018-01-08T05:14:29.995Z,81.00
2018-01-08T05:16:58.270Z,81.00
2018-01-08T05:19:26.526Z,80.80
2018-01-08T05:21:54.054Z,80.80
2018-01-08T05:24:21.557Z,80.70
2018-01-08T05:26:49.083Z,80.60
2018-01-08T05:29:16.591Z,80.60
2018-01-08T05:31:44.731Z,80.60
2018-01-08T05:34:13.023Z,80.70
2018-01-08T05:36:41.290Z,80.60
2018-01-08T05:39:08.818Z,80.50
2018-01-08T05:41:36.312Z,80.50
2018-01-08T05:44:04.588Z,80.80
2018-01-08T05:46:32.876Z,80.80
2018-01-08T05:49:01.139Z,80.90
2018-01-08T05:51:29.440Z,80.90
2018-01-08T05:53:56.948Z,80.90
2018-01-08T05:56:24.458Z,80.70
2018-01-08T05:58:51.990Z,80.60
2018-01-08T06:01:20.264Z,80.80
2018-01-08T06:03:48.567Z,80.70
2018-01-08T06:06:16.132Z,80.70
2018-01-08T06:08:43.630Z,80.50
2018-01-08T06:11:11.942Z,80.50
2018-01-08T06:13:39.451Z,80.50
2018-01-08T06:16:06.995Z,80.20
2018-01-08T06:18:34.490Z,81.00
2018-01-08T06:21:01.988Z,80.00
2018-01-08T06:23:29.508Z,80.00
2018-01-08T06:25:57.028Z,80.10
2018-01-08T06:28:24.544Z,80.30
2018-01-08T06:30:52.912Z,79.30
2018-01-08T06:33:21.207Z,79.60
2018-01-08T06:35:48.700Z,79.40
2018-01-08T06:38:16.208Z,79.40
2018-01-08T06:40:44.501Z,79.10
2018-01-08T06:43:12.012Z,79.00
2018-01-08T06:45:39.532Z,79.50
2018-01-08T06:48:07.038Z,78.60
2018-01-08T06:50:34.564Z,78.50
2018-01-08T06:53:02.072Z,78.60
2018-01-08T06:55:30.345Z,78.60
2018-01-08T06:57:58.635Z,78.70
2018-01-08T07:00:26.120Z,78.70
2018-01-08T07:02:53.619Z,78.50
2018-01-08T07:05:21.915Z,78.70
2018-01-08T07:07:50.179Z,78.40
2018-01-08T07:10:18.455Z,78.80
2018-01-08T07:12:46.756Z,79.10
2018-01-08T07:15:14.260Z,78.90
2018-01-08T07:17:41.763Z,78.60
2018-01-08T07:20:09.283Z,78.90
2018-01-08T07:22:36.791Z,78.90
2018-01-08T07:25:04.327Z,79.00
2018-01-08T07:27:32.637Z,78.70
2018-01-08T07:30:00.153Z,78.80
2018-01-08T07:32:28.442Z,78.80
2018-01-08T07:34:56.703Z,78.70
2018-01-08T07:37:24.988Z,78.60
2018-01-08T07:39:53.272Z,78.90
2018-01-08T07:42:20.799Z,78.90
2018-01-08T07:44:48.315Z,79.00
2018-01-08T07:47:15.830Z,78.80
2018-01-08T07:49:44.091Z,79.00
2018-01-08T07:52:11.607Z,79.00
2018-01-08T07:54:39.105Z,78.80
2018-01-08T07:57:06.628Z,78.90
2018-01-08T07:59:34.129Z,79.10
2018-01-08T08:02:02.456Z,78.70
2018-01-08T08:04:29.984Z,78.70
2018-01-08T08:06:57.480Z,78.90
2018-01-08T08:09:24.991Z,78.70
2018-01-08T08:11:53.276Z,78.80
2018-01-08T08:14:20.800Z,78.80
2018-01-08T08:16:48.335Z,78.90
2018-01-08T08:19:15.848Z,79.10
2018-01-08T08:21:43.354Z,78.90
2018-01-08T08:24:10.916Z,78.80
2018-01-08T08:26:38.410Z,78.50
2018-01-08T08:29:06.680Z,78.60
2018-01-08T08:31:34.967Z,78.80
2018-01-08T08:34:02.465Z,78.70
2018-01-08T08:36:30.019Z,78.50
2018-01-08T08:38:57.549Z,78.30
2018-01-08T08:41:25.081Z,78.30
2018-01-08T08:43:53.337Z,78.50
2018-01-08T08:46:20.848Z,78.40
2018-01-08T08:48:48.399Z,78.30
2018-01-08T08:51:15.907Z,78.10
2018-01-08T08:53:43.441Z,78.10
2018-01-08T08:56:10.932Z,78.10
2018-01-08T08:58:38.463Z,78.10
2018-01-08T09:01:05.964Z,78.00
2018-01-08T09:03:34.273Z,78.10
2018-01-08T09:06:01.759Z,78.10
2018-01-08T09:08:29.316Z,77.80
2018-01-08T09:10:56.856Z,77.80
2018-01-08T09:13:24.360Z,77.50
2018-01-08T09:15:51.964Z,77.50
2018-01-08T09:18:20.195Z,77.60
2018-01-08T09:20:48.492Z,77.40
2018-01-08T09:23:16.020Z,77.40
2018-01-08T09:25:43.519Z,77.60
2018-01-08T09:28:11.047Z,77.90
2018-01-08T09:30:39.340Z,77.50
2018-01-08T09:33:07.624Z,77.30
2018-01-08T09:35:35.144Z,77.30
2018-01-08T09:38:02.713Z,77.50
2018-01-08T09:40:31.004Z,77.70
2018-01-08T09:42:59.264Z,77.60
2018-01-08T09:45:27.568Z,77.60
2018-01-08T09:47:55.122Z,77.60
2018-01-08T09:50:22.620Z,77.60
2018-01-08T09:52:50.155Z,77.90
2018-01-08T09:55:17.664Z,77.80
2018-01-08T09:57:45.195Z,77.50
2018-01-08T10:00:12.700Z,77.70
2018-01-08T10:02:52.809Z,77.10
2018-01-08T10:05:32.044Z,77.10
2018-01-08T10:08:11.571Z,77.30
2018-01-08T10:10:50.824Z,77.30
2018-01-08T10:13:30.363Z,76.90
2018-01-08T10:16:09.617Z,77.30
2018-01-08T10:18:37.415Z,77.30
2018-01-08T10:21:04.927Z,77.30
2018-01-08T10:23:32.491Z,77.60
2018-01-08T10:26:00.761Z,78.20
2018-01-08T10:28:29.048Z,78.10
2018-01-08T10:30:57.340Z,77.60
2018-01-08T10:33:24.872Z,77.60
2018-01-08T10:35:52.384Z,77.50
2018-01-08T10:38:19.894Z,77.70
2018-01-08T10:40:48.184Z,77.70
2018-01-08T10:43:22.158Z,77.40
2018-01-08T10:45:55.285Z,77.40
2018-01-08T10:48:28.424Z,77.50
2018-01-08T10:51:01.637Z,77.70
2018-01-08T10:53:29.917Z,78.50
2018-01-08T10:55:58.192Z,77.40
2018-01-08T10:58:26.491Z,77.10
2018-01-08T11:00:59.812Z,77.00
2018-01-08T11:03:32.997Z,76.90
2018-01-08T11:06:08.296Z,77.00
2018-01-08T11:08:36.609Z,77.60
2018-01-08T11:11:04.121Z,77.10
2018-01-08T11:13:32.454Z,77.00
2018-01-08T11:15:59.960Z,77.00
2018-01-08T11:18:27.465Z,76.90
2018-01-08T11:20:54.985Z,77.10
2018-01-08T11:23:23.251Z,76.50
2018-01-08T11:25:51.560Z,76.40
2018-01-08T11:28:19.080Z,76.40
2018-01-08T11:30:47.398Z,76.50
2018-01-08T11:33:14.919Z,76.40
2018-01-08T11:35:43.206Z,76.60
2018-01-08T11:38:11.506Z,76.50
2018-01-08T11:40:39.020Z,76.40
2018-01-08T11:43:06.556Z,76.50
2018-01-08T11:45:34.086Z,76.40
2018-01-08T11:48:01.592Z,76.40
2018-01-08T11:50:29.145Z,76.30
2018-01-08T11:52:56.639Z,76.10
2018-01-08T11:55:24.156Z,76.00
2018-01-08T11:57:51.691Z,75.80
2018-01-08T12:00:19.195Z,76.20
2018-01-08T12:02:47.520Z,75.80
2018-01-08T12:05:15.029Z,75.80
2018-01-08T12:07:43.313Z,75.80
2018-01-08T12:10:11.631Z,75.80
2018-01-08T12:12:39.174Z,75.80
2018-01-08T12:15:06.722Z,75.40
2018-01-08T12:17:34.232Z,75.80
2018-01-08T12:20:01.772Z,75.40
2018-01-08T12:22:29.295Z,75.50
2018-01-08T12:24:56.840Z,75.70
2018-01-08T12:27:24.387Z,75.50
2018-01-08T12:29:52.655Z,75.30
2018-01-08T12:32:20.946Z,75.50
2018-01-08T12:34:48.500Z,75.50
2018-01-08T12:37:16.806Z,75.10
2018-01-08T12:39:44.356Z,75.10
2018-01-08T12:42:11.845Z,75.00
2018-01-08T12:44:39.381Z,74.80
2018-01-08T12:47:06.940Z,75.10
2018-01-08T12:49:34.439Z,74.50
2018-01-08T12:52:01.964Z,74.60
2018-01-08T12:54:29.450Z,74.20
2018-01-08T12:56:56.957Z,74.60
2018-01-08T12:59:24.493Z,74.30
2018-01-08T13:01:52.764Z,74.70
2018-01-08T13:04:21.076Z,74.40
2018-01-08T13:06:48.588Z,74.40
2018-01-08T13:09:16.132Z,74.30
2018-01-08T13:11:43.624Z,74.40
2018-01-08T13:14:11.890Z,74.40
2018-01-08T13:16:40.219Z,74.10
2018-01-08T13:19:07.730Z,74.00
2018-01-08T13:21:36.006Z,73.80
2018-01-08T13:24:04.324Z,73.80
2018-01-08T13:26:31.824Z,73.70
2018-01-08T13:29:00.124Z,74.70
2018-01-08T13:31:28.547Z,73.60
2018-01-08T13:33:56.081Z,73.50
2018-01-08T13:36:23.589Z,73.60
2018-01-08T13:38:51.867Z,73.70
2018-01-08T13:41:20.160Z,74.20
2018-01-08T13:43:48.426Z,73.60
2018-01-08T13:46:16.720Z,73.60
2018-01-08T13:48:44.216Z,73.60
2018-01-08T13:51:11.751Z,73.60
2018-01-08T13:53:39.253Z,73.20
2018-01-08T13:56:06.780Z,73.80
2018-01-08T13:58:34.307Z,73.90
2018-01-08T14:01:01.828Z,73.50
2018-01-08T14:03:29.344Z,73.60
2018-01-08T14:05:56.871Z,73.40
2018-01-08T14:08:25.134Z,73.60
2018-01-08T14:10:53.410Z,73.80
2018-01-08T14:13:21.713Z,74.70
2018-01-08T14:15:49.251Z,73.80
2018-01-08T14:18:17.556Z,74.00
2018-01-08T14:20:45.092Z,74.00
2018-01-08T14:23:13.364Z,73.70
2018-01-08T14:25:40.895Z,73.70
2018-01-08T14:28:08.433Z,73.80
2018-01-08T14:30:35.983Z,74.00
2018-01-08T14:33:03.498Z,74.10
2018-01-08T14:35:31.814Z,74.00
2018-01-08T14:37:59.408Z,73.90
2018-01-08T14:40:26.918Z,74.20
2018-01-08T14:42:54.452Z,74.20
2018-01-08T14:45:21.973Z,74.40
2018-01-08T14:47:49.505Z,74.30
2018-01-08T14:50:17.033Z,74.40
2018-01-08T14:52:45.342Z,74.30
2018-01-08T14:55:12.860Z,74.40
2018-01-08T14:57:40.364Z,74.20
2018-01-08T15:00:07.889Z,74.10
2018-01-08T15:02:35.416Z,74.10
2018-01-08T15:05:03.702Z,74.20
2018-01-08T15:07:31.236Z,74.20
2018-01-08T15:09:58.744Z,73.90
2018-01-08T15:12:26.294Z,74.10
2018-01-08T15:14:53.816Z,74.10
2018-01-08T15:17:22.120Z,74.70
2018-01-08T15:19:49.649Z,73.70
2018-01-08T15:22:17.167Z,73.50
2018-01-08T15:24:44.688Z,73.90
2018-01-08T15:27:12.207Z,73.60
2018-01-08T15:29:39.724Z,73.80
2018-01-08T15:32:07.283Z,74.30
2018-01-08T15:34:34.796Z,74.10
2018-01-08T15:37:03.084Z,73.30
2018-01-08T15:39:31.373Z,73.80
2018-01-08T15:41:58.910Z,73.70
2018-01-08T15:44:26.433Z,73.80
2018-01-08T15:46:53.940Z,73.90
2018-01-08T15:49:22.224Z,74.00
2018-01-08T15:51:49.765Z,74.00
2018-01-08T15:54:18.060Z,74.20
2018-01-08T15:56:45.562Z,74.00
2018-01-08T15:59:13.100Z,74.50
2018-01-08T16:01:40.604Z,74.00
2018-01-08T16:04:09.649Z,74.10
2018-01-08T16:06:37.222Z,74.00
2018-01-08T16:09:04.719Z,73.80
2018-01-08T16:11:33.042Z,74.40
2018-01-08T16:14:00.556Z,74.30
2018-01-08T16:16:28.840Z,74.50
2018-01-08T16:18:56.372Z,74.50
2018-01-08T16:21:23.895Z,74.40
2018-01-08T16:23:51.474Z,74.50
2018-01-08T16:26:19.007Z,74.70
2018-01-08T16:28:46.521Z,74.60
2018-01-08T16:31:14.833Z,75.00
2018-01-08T16:33:42.360Z,74.90
2018-01-08T16:36:10.653Z,74.90
2018-01-08T16:38:40.041Z,74.90
2018-01-08T16:41:07.719Z,74.80
2018-01-08T16:43:35.229Z,75.00
2018-01-08T16:46:03.513Z,75.10
2018-01-08T16:48:31.818Z,75.50
2018-01-08T16:50:59.332Z,75.10
2018-01-08T16:53:26.871Z,75.20
2018-01-08T16:55:54.384Z,75.20
2018-01-08T16:58:22.655Z,75.00
2018-01-08T17:00:50.970Z,75.00
2018-01-08T17:03:18.481Z,75.00
2018-01-08T17:05:47.435Z,75.00
2018-01-08T17:08:14.955Z,74.90
2018-01-08T17:10:42.504Z,74.90
2018-01-08T17:13:10.007Z,74.80
2018-01-08T17:15:37.541Z,74.90
2018-01-08T17:18:05.081Z,74.80
2018-01-08T17:20:32.629Z,75.00
2018-01-08T17:23:00.920Z,74.80
2018-01-08T17:25:28.425Z,74.70
2018-01-08T17:27:55.996Z,75.00
2018-01-08T17:30:23.513Z,75.60
2018-01-08T17:32:51.061Z,75.50
2018-01-08T17:35:18.588Z,75.00
2018-01-08T17:37:46.890Z,75.10
2018-01-08T17:40:14.416Z,75.00
2018-01-08T17:42:42.705Z,74.90
2018-01-08T17:45:11.017Z,75.00
2018-01-08T17:47:38.514Z,75.00
2018-01-08T17:50:06.055Z,75.10
2018-01-08T17:52:33.562Z,75.30
2018-01-08T17:55:01.072Z,75.30
2018-01-08T17:57:28.607Z,75.20
2018-01-08T17:59:56.112Z,75.30
2018-01-08T18:02:24.416Z,75.20
2018-01-08T18:04:51.940Z,75.20
2018-01-08T18:07:20.311Z,75.40
2018-01-08T18:09:47.837Z,75.40
2018-01-08T18:12:15.378Z,75.30
2018-01-08T18:14:42.956Z,75.30
2018-01-08T18:17:10.454Z,75.20
2018-01-08T18:19:38.754Z,75.60
2018-01-08T18:22:06.259Z,75.50
2018-01-08T18:24:33.819Z,75.40
2018-01-08T18:27:01.328Z,75.50
2018-01-08T18:29:28.858Z,75.50
2018-01-08T18:31:56.425Z,75.30
2018-01-08T18:34:24.738Z,75.40
2018-01-08T18:36:52.279Z,75.20
2018-01-08T18:39:19.811Z,75.40
2018-01-08T18:41:48.103Z,75.30
2018-01-08T18:44:16.432Z,75.30
2018-01-08T18:46:43.972Z,75.30
2018-01-08T18:49:11.497Z,75.40
2018-01-08T18:51:39.837Z,75.50
2018-01-08T18:54:07.355Z,75.50
2018-01-08T18:56:34.904Z,75.40
2018-01-08T18:59:02.418Z,75.30
2018-01-08T19:01:29.956Z,75.30
2018-01-08T19:03:57.502Z,75.40
2018-01-08T19:06:25.017Z,75.50
2018-01-08T19:08:53.321Z,89.50
2018-01-08T19:11:20.827Z,89.50
2018-01-08T19:13:48.385Z,89.00
2018-01-08T19:16:15.898Z,86.70
2018-01-08T19:18:43.403Z,88.40
2018-01-08T19:21:11.014Z,86.60
2018-01-08T19:23:38.540Z,83.70
2018-01-08T19:26:06.317Z,82.70
2018-01-08T19:28:33.929Z,82.00
2018-01-08T19:31:02.269Z,78.40
2018-01-08T19:33:29.842Z,78.40
2018-01-08T19:35:57.352Z,78.80
2018-01-08T19:38:25.784Z,71.00
2018-01-08T19:40:53.316Z,71.00
2018-01-08T19:43:20.945Z,69.90
2018-01-08T19:45:49.497Z,71.60
2018-01-08T19:48:17.063Z,71.70
2018-01-08T19:50:44.580Z,72.00
2018-01-08T19:53:12.104Z,72.50
2018-01-08T19:55:39.713Z,73.40
2018-01-08T19:58:07.238Z,74.50
2018-01-08T20:00:34.821Z,74.00
2018-01-08T20:03:02.328Z,74.40
2018-01-08T20:05:30.688Z,76.00
2018-01-08T20:07:58.263Z,75.00
2018-01-08T20:10:26.562Z,75.30
2018-01-08T20:12:54.089Z,75.20
2018-01-08T20:15:21.649Z,75.50
2018-01-08T20:17:49.969Z,76.30
2018-01-08T20:20:17.547Z,76.30
2018-01-08T20:22:45.182Z,76.50
2018-01-08T20:25:12.796Z,76.20
2018-01-08T20:27:40.414Z,76.80
2018-01-08T20:30:07.988Z,77.00
2018-01-08T20:32:35.531Z,77.90
2018-01-08T20:35:03.093Z,77.90
2018-01-08T20:37:30.630Z,77.80
2018-01-08T20:39:58.165Z,77.80
2018-01-08T20:42:26.461Z,78.50
2018-01-08T20:44:53.998Z,77.60
2018-01-08T20:47:22.301Z,77.80
2018-01-08T20:49:49.870Z,77.80
2018-01-08T20:52:17.444Z,77.90
2018-01-08T20:54:44.985Z,77.80
2018-01-08T20:57:12.546Z,78.00
2018-01-08T20:59:40.083Z,78.20
2018-01-08T21:02:08.413Z,78.90
2018-01-08T21:04:35.906Z,78.90
2018-01-08T21:07:04.205Z,79.50
2018-01-08T21:09:31.752Z,79.40
2018-01-08T21:11:59.290Z,79.20
2018-01-08T21:14:27.624Z,80.20
2018-01-08T21:16:55.142Z,79.40
2018-01-08T21:19:22.688Z,79.00
2018-01-08T21:21:50.977Z,79.20
2018-01-08T21:24:18.509Z,79.20
2018-01-08T21:26:47.213Z,79.20
2018-01-08T21:29:14.735Z,79.40
2018-01-08T21:31:42.279Z,79.60
2018-01-08T21:34:09.791Z,79.40
2018-01-08T21:36:38.057Z,79.40
2018-01-08T21:39:06.407Z,79.20
2018-01-08T21:41:33.918Z,79.10
2018-01-08T21:44:01.468Z,79.70
2018-01-08T21:46:28.985Z,79.60
2018-01-08T21:48:56.524Z,79.70
2018-01-08T21:51:24.101Z,79.70
2018-01-08T21:53:51.641Z,80.00
2018-01-08T21:56:19.170Z,79.80
2018-01-08T21:58:46.743Z,79.40
2018-01-08T22:01:14.261Z,79.50
2018-01-08T22:03:41.778Z,79.40
2018-01-08T22:06:09.303Z,79.60
2018-01-08T22:08:36.857Z,79.40
2018-01-08T22:11:04.385Z,79.80
2018-01-08T22:13:32.704Z,80.00
2018-01-08T22:16:00.389Z,80.00
2018-01-08T22:18:27.895Z,80.00
2018-01-08T22:20:55.449Z,79.90
2018-01-08T22:23:23.736Z,80.30
2018-01-08T22:25:51.269Z,80.30
2018-01-08T22:28:19.550Z,80.60
2018-01-08T22:30:47.838Z,80.80
2018-01-08T22:33:15.392Z,80.80
2018-01-08T22:35:42.913Z,80.80
2018-01-08T22:38:11.922Z,81.50
2018-01-08T22:40:39.474Z,81.50
2018-01-08T22:43:07.742Z,80.30
2018-01-08T22:45:35.283Z,80.30
2018-01-08T22:48:02.803Z,80.60
2018-01-08T22:50:30.377Z,80.60
2018-01-08T22:52:57.930Z,80.40
2018-01-08T22:55:25.454Z,80.40
2018-01-08T22:57:53.761Z,80.90
2018-01-08T23:00:21.303Z,80.90
2018-01-08T23:02:48.836Z,81.50
2018-01-08T23:05:17.126Z,80.70
2018-01-08T23:07:45.400Z,80.90
2018-01-08T23:10:12.961Z,80.80
2018-01-08T23:12:41.237Z,80.90
2018-01-08T23:15:09.515Z,80.80
2018-01-08T23:17:37.797Z,80.70
2018-01-08T23:20:05.331Z,80.70
2018-01-08T23:22:32.868Z,81.20
2018-01-08T23:25:00.362Z,81.50
2018-01-08T23:27:28.665Z,81.30
2018-01-08T23:29:56.161Z,81.30
2018-01-08T23:32:23.691Z,81.00
2018-01-08T23:34:51.192Z,80.70
2018-01-08T23:37:18.709Z,80.80
2018-01-08T23:39:46.239Z,80.90
2018-01-08T23:42:13.756Z,81.10
2018-01-08T23:44:41.264Z,81.60
2018-01-08T23:47:08.808Z,81.40
2018-01-08T23:49:36.316Z,81.40
2018-01-08T23:52:03.869Z,81.40
2018-01-08T23:54:31.391Z,81.40
2018-01-08T23:56:58.923Z,81.50
2018-01-08T23:59:27.197Z,82.00
